sensor_id;sensor_type;location;lat;lon;timestamp;temperature;humidity
7206;DHT22;3644;53.480;10.004;2022-12-17T00:00:18;0.10;99.90
7206;DHT22;3644;53.480;10.004;2022-12-17T00:03:02;0.00;99.90
7206;DHT22;3644;53.480;10.004;2022-12-17T00:05:46;0.00;99.90
7206;DHT22;3644;53.480;10.004;2022-12-17T00:08:31;0.00;99.90
7206;DHT22;3644;53.480;10.004;2022-12-17T00:11:15;0.00;99.90
7206;DHT22;3644;53.480;10.004;2022-12-17T00:13:59;-0.10;99.90
7206;DHT22;3644;53.480;10.004;2022-12-17T00:16:43;-0.20;99.90
7206;DHT22;3644;53.480;10.004;2022-12-17T00:19:27;-0.10;99.90
7206;DHT22;3644;53.480;10.004;2022-12-17T00:22:11;-0.10;99.90
7206;DHT22;3644;53.480;10.004;2022-12-17T00:24:55;-0.10;99.90
7206;DHT22;3644;53.480;10.004;2022-12-17T00:27:39;-0.20;99.90
7206;DHT22;3644;53.480;10.004;2022-12-17T00:30:23;-0.20;99.90
7206;DHT22;3644;53.480;10.004;2022-12-17T00:33:07;-0.20;99.90
7206;DHT22;3644;53.480;10.004;2022-12-17T00:35:52;-0.10;99.90
7206;DHT22;3644;53.480;10.004;2022-12-17T00:38:36;-0.20;99.90
7206;DHT22;3644;53.480;10.004;2022-12-17T00:41:20;-0.20;99.90
7206;DHT22;3644;53.480;10.004;2022-12-17T00:44:04;-0.30;99.90
7206;DHT22;3644;53.480;10.004;2022-12-17T00:46:48;-0.20;99.90
7206;DHT22;3644;53.480;10.004;2022-12-17T00:49:32;-0.30;99.90
7206;DHT22;3644;53.480;10.004;2022-12-17T00:52:16;-0.20;99.90
7206;DHT22;3644;53.480;10.004;2022-12-17T00:55:02;-0.30;99.90
7206;DHT22;3644;53.480;10.004;2022-12-17T00:57:46;-0.20;99.90
7206;DHT22;3644;53.480;10.004;2022-12-17T01:00:34;-0.40;99.90
7206;DHT22;3644;53.480;10.004;2022-12-17T01:03:18;-0.40;99.90
7206;DHT22;3644;53.480;10.004;2022-12-17T01:06:02;-0.50;99.90
7206;DHT22;3644;53.480;10.004;2022-12-17T01:08:46;-0.40;99.90
7206;DHT22;3644;53.480;10.004;2022-12-17T01:11:30;-0.40;99.90
7206;DHT22;3644;53.480;10.004;2022-12-17T01:14:14;-0.30;99.90
7206;DHT22;3644;53.480;10.004;2022-12-17T01:16:58;-0.40;99.90
7206;DHT22;3644;53.480;10.004;2022-12-17T01:19:47;-0.30;99.90
7206;DHT22;3644;53.480;10.004;2022-12-17T01:22:31;-0.30;99.90
7206;DHT22;3644;53.480;10.004;2022-12-17T01:25:15;-0.40;99.90
7206;DHT22;3644;53.480;10.004;2022-12-17T01:27:59;-0.40;99.90
7206;DHT22;3644;53.480;10.004;2022-12-17T01:30:43;-0.50;99.90
7206;DHT22;3644;53.480;10.004;2022-12-17T01:33:27;-0.40;99.90
7206;DHT22;3644;53.480;10.004;2022-12-17T01:36:11;-0.50;99.90
7206;DHT22;3644;53.480;10.004;2022-12-17T01:38:55;-0.50;99.90
7206;DHT22;3644;53.480;10.004;2022-12-17T01:41:39;-0.50;99.90
7206;DHT22;3644;53.480;10.004;2022-12-17T01:44:45;-0.50;99.90
7206;DHT22;3644;53.480;10.004;2022-12-17T01:47:36;-0.60;99.90
7206;DHT22;3644;53.480;10.004;2022-12-17T01:50:24;-0.60;99.90
7206;DHT22;3644;53.480;10.004;2022-12-17T01:53:10;-0.60;99.90
7206;DHT22;3644;53.480;10.004;2022-12-17T01:55:55;-0.60;99.90
7206;DHT22;3644;53.480;10.004;2022-12-17T01:58:40;-0.60;99.90
7206;DHT22;3644;53.480;10.004;2022-12-17T02:01:24;-0.80;99.90
7206;DHT22;3644;53.480;10.004;2022-12-17T02:04:09;-0.70;99.90
7206;DHT22;3644;53.480;10.004;2022-12-17T02:07:26;-0.70;99.90
7206;DHT22;3644;53.480;10.004;2022-12-17T02:13:34;-0.70;99.90
7206;DHT22;3644;53.480;10.004;2022-12-17T02:16:41;-0.80;99.90
7206;DHT22;3644;53.480;10.004;2022-12-17T02:20:01;-0.80;99.90
7206;DHT22;3644;53.480;10.004;2022-12-17T02:23:18;-0.70;99.90
7206;DHT22;3644;53.480;10.004;2022-12-17T02:26:14;-0.90;99.90
7206;DHT22;3644;53.480;10.004;2022-12-17T02:29:02;-1.00;99.90
7206;DHT22;3644;53.480;10.004;2022-12-17T02:31:47;-0.80;99.90
7206;DHT22;3644;53.480;10.004;2022-12-17T02:34:45;-0.90;99.90
7206;DHT22;3644;53.480;10.004;2022-12-17T02:37:29;-1.00;99.90
7206;DHT22;3644;53.480;10.004;2022-12-17T02:40:15;-1.00;99.90
7206;DHT22;3644;53.480;10.004;2022-12-17T02:43:00;-1.00;99.90
7206;DHT22;3644;53.480;10.004;2022-12-17T02:45:45;-1.00;99.90
7206;DHT22;3644;53.480;10.004;2022-12-17T02:48:30;-1.10;99.90
7206;DHT22;3644;53.480;10.004;2022-12-17T02:51:15;-1.10;99.90
7206;DHT22;3644;53.480;10.004;2022-12-17T02:54:02;-1.30;99.90
7206;DHT22;3644;53.480;10.004;2022-12-17T02:56:47;-1.20;99.90
7206;DHT22;3644;53.480;10.004;2022-12-17T02:59:31;-1.10;99.90
7206;DHT22;3644;53.480;10.004;2022-12-17T03:02:15;-1.20;99.90
7206;DHT22;3644;53.480;10.004;2022-12-17T03:05:00;-1.20;99.90
7206;DHT22;3644;53.480;10.004;2022-12-17T03:07:44;-1.30;99.90
7206;DHT22;3644;53.480;10.004;2022-12-17T03:10:28;-1.40;99.90
7206;DHT22;3644;53.480;10.004;2022-12-17T03:13:26;-1.40;99.90
7206;DHT22;3644;53.480;10.004;2022-12-17T03:16:13;-1.40;99.90
7206;DHT22;3644;53.480;10.004;2022-12-17T03:18:57;-1.40;99.90
7206;DHT22;3644;53.480;10.004;2022-12-17T03:21:42;-1.50;99.90
7206;DHT22;3644;53.480;10.004;2022-12-17T03:24:26;-1.50;99.90
7206;DHT22;3644;53.480;10.004;2022-12-17T03:27:11;-1.50;99.90
7206;DHT22;3644;53.480;10.004;2022-12-17T03:29:55;-1.60;99.90
7206;DHT22;3644;53.480;10.004;2022-12-17T03:32:39;-1.70;99.90
7206;DHT22;3644;53.480;10.004;2022-12-17T03:35:23;-1.70;99.90
7206;DHT22;3644;53.480;10.004;2022-12-17T03:38:08;-1.70;99.90
7206;DHT22;3644;53.480;10.004;2022-12-17T03:41:09;-1.80;99.90
7206;DHT22;3644;53.480;10.004;2022-12-17T03:43:53;-1.80;99.90
7206;DHT22;3644;53.480;10.004;2022-12-17T03:46:38;-1.80;99.90
7206;DHT22;3644;53.480;10.004;2022-12-17T03:49:22;-1.90;99.90
7206;DHT22;3644;53.480;10.004;2022-12-17T03:52:05;-1.80;99.90
7206;DHT22;3644;53.480;10.004;2022-12-17T03:54:50;-1.80;99.90
7206;DHT22;3644;53.480;10.004;2022-12-17T03:57:34;-2.00;99.90
7206;DHT22;3644;53.480;10.004;2022-12-17T04:00:18;-1.90;99.90
7206;DHT22;3644;53.480;10.004;2022-12-17T04:03:02;-1.90;99.90
7206;DHT22;3644;53.480;10.004;2022-12-17T04:05:46;-1.80;99.90
7206;DHT22;3644;53.480;10.004;2022-12-17T04:08:30;-1.90;99.90
7206;DHT22;3644;53.480;10.004;2022-12-17T04:11:14;-1.90;99.90
7206;DHT22;3644;53.480;10.004;2022-12-17T04:13:58;-2.00;99.90
7206;DHT22;3644;53.480;10.004;2022-12-17T04:16:42;-2.00;99.90
7206;DHT22;3644;53.480;10.004;2022-12-17T04:19:26;-2.10;99.90
7206;DHT22;3644;53.480;10.004;2022-12-17T04:22:10;-2.00;99.90
7206;DHT22;3644;53.480;10.004;2022-12-17T04:24:54;-2.10;99.90
7206;DHT22;3644;53.480;10.004;2022-12-17T04:27:38;-2.10;99.90
7206;DHT22;3644;53.480;10.004;2022-12-17T04:30:22;-2.10;99.90
7206;DHT22;3644;53.480;10.004;2022-12-17T04:33:06;-2.20;99.90
7206;DHT22;3644;53.480;10.004;2022-12-17T04:35:50;-2.20;99.90
7206;DHT22;3644;53.480;10.004;2022-12-17T04:38:34;-2.20;99.90
7206;DHT22;3644;53.480;10.004;2022-12-17T04:41:18;-2.30;99.90
7206;DHT22;3644;53.480;10.004;2022-12-17T04:44:02;-2.30;99.90
7206;DHT22;3644;53.480;10.004;2022-12-17T04:46:46;-2.30;99.90
7206;DHT22;3644;53.480;10.004;2022-12-17T04:49:30;-2.40;99.90
7206;DHT22;3644;53.480;10.004;2022-12-17T04:52:14;-2.30;99.90
7206;DHT22;3644;53.480;10.004;2022-12-17T04:54:58;-2.40;99.90
7206;DHT22;3644;53.480;10.004;2022-12-17T04:57:42;-2.40;99.90
7206;DHT22;3644;53.480;10.004;2022-12-17T05:00:40;-2.40;99.90
7206;DHT22;3644;53.480;10.004;2022-12-17T05:03:24;-2.40;99.90
7206;DHT22;3644;53.480;10.004;2022-12-17T05:06:08;-2.50;99.90
7206;DHT22;3644;53.480;10.004;2022-12-17T05:08:52;-2.50;99.90
7206;DHT22;3644;53.480;10.004;2022-12-17T05:11:36;-2.40;99.90
7206;DHT22;3644;53.480;10.004;2022-12-17T05:14:20;-2.60;99.90
7206;DHT22;3644;53.480;10.004;2022-12-17T05:17:05;-2.60;99.90
7206;DHT22;3644;53.480;10.004;2022-12-17T05:19:49;-2.60;99.90
7206;DHT22;3644;53.480;10.004;2022-12-17T05:22:33;-2.60;99.90
7206;DHT22;3644;53.480;10.004;2022-12-17T05:25:17;-2.40;99.90
7206;DHT22;3644;53.480;10.004;2022-12-17T05:28:01;-2.50;99.90
7206;DHT22;3644;53.480;10.004;2022-12-17T05:30:53;-2.50;99.90
7206;DHT22;3644;53.480;10.004;2022-12-17T05:33:37;-2.50;99.90
7206;DHT22;3644;53.480;10.004;2022-12-17T05:36:21;-2.50;99.90
7206;DHT22;3644;53.480;10.004;2022-12-17T05:39:05;-2.60;99.90
7206;DHT22;3644;53.480;10.004;2022-12-17T05:41:49;-2.60;99.90
7206;DHT22;3644;53.480;10.004;2022-12-17T05:44:33;-2.70;99.90
7206;DHT22;3644;53.480;10.004;2022-12-17T05:47:17;-2.60;99.90
7206;DHT22;3644;53.480;10.004;2022-12-17T05:50:01;-2.60;99.90
7206;DHT22;3644;53.480;10.004;2022-12-17T05:52:45;-2.70;99.90
7206;DHT22;3644;53.480;10.004;2022-12-17T05:55:29;-2.80;99.90
7206;DHT22;3644;53.480;10.004;2022-12-17T05:58:13;-2.70;99.90
7206;DHT22;3644;53.480;10.004;2022-12-17T06:00:59;-2.70;99.90
7206;DHT22;3644;53.480;10.004;2022-12-17T06:03:43;-2.80;99.90
7206;DHT22;3644;53.480;10.004;2022-12-17T06:06:28;-2.80;99.90
7206;DHT22;3644;53.480;10.004;2022-12-17T06:09:11;-2.90;99.90
7206;DHT22;3644;53.480;10.004;2022-12-17T06:11:55;-3.00;99.90
7206;DHT22;3644;53.480;10.004;2022-12-17T06:14:40;-2.90;99.90
7206;DHT22;3644;53.480;10.004;2022-12-17T06:17:23;-3.00;99.90
7206;DHT22;3644;53.480;10.004;2022-12-17T06:20:08;-2.90;99.90
7206;DHT22;3644;53.480;10.004;2022-12-17T06:23:04;-3.00;99.90
7206;DHT22;3644;53.480;10.004;2022-12-17T06:25:51;-2.90;99.90
7206;DHT22;3644;53.480;10.004;2022-12-17T06:28:34;-3.00;99.90
7206;DHT22;3644;53.480;10.004;2022-12-17T06:31:18;-2.90;99.90
7206;DHT22;3644;53.480;10.004;2022-12-17T06:34:03;-3.00;99.90
7206;DHT22;3644;53.480;10.004;2022-12-17T06:36:47;-3.10;99.90
7206;DHT22;3644;53.480;10.004;2022-12-17T06:39:31;-3.10;99.90
7206;DHT22;3644;53.480;10.004;2022-12-17T06:42:15;-3.10;99.90
7206;DHT22;3644;53.480;10.004;2022-12-17T06:44:59;-3.00;99.90
7206;DHT22;3644;53.480;10.004;2022-12-17T06:47:43;-3.00;99.90
7206;DHT22;3644;53.480;10.004;2022-12-17T06:50:27;-3.10;99.90
7206;DHT22;3644;53.480;10.004;2022-12-17T06:53:10;-3.00;99.90
7206;DHT22;3644;53.480;10.004;2022-12-17T06:55:57;-3.10;99.90
7206;DHT22;3644;53.480;10.004;2022-12-17T06:58:41;-3.20;99.90
7206;DHT22;3644;53.480;10.004;2022-12-17T07:01:25;-3.10;99.90
7206;DHT22;3644;53.480;10.004;2022-12-17T07:04:10;-3.10;99.90
7206;DHT22;3644;53.480;10.004;2022-12-17T07:06:54;-3.10;99.90
7206;DHT22;3644;53.480;10.004;2022-12-17T07:09:39;-3.10;99.90
7206;DHT22;3644;53.480;10.004;2022-12-17T07:12:23;-3.10;99.90
7206;DHT22;3644;53.480;10.004;2022-12-17T07:15:07;-3.00;99.90
7206;DHT22;3644;53.480;10.004;2022-12-17T07:17:56;-3.00;99.90
7206;DHT22;3644;53.480;10.004;2022-12-17T07:20:40;-2.90;99.90
7206;DHT22;3644;53.480;10.004;2022-12-17T07:23:24;-2.90;99.90
7206;DHT22;3644;53.480;10.004;2022-12-17T07:26:08;-2.80;99.90
7206;DHT22;3644;53.480;10.004;2022-12-17T07:28:52;-2.90;99.90
7206;DHT22;3644;53.480;10.004;2022-12-17T07:31:36;-3.00;99.90
7206;DHT22;3644;53.480;10.004;2022-12-17T07:34:20;-3.00;99.90
7206;DHT22;3644;53.480;10.004;2022-12-17T07:37:04;-3.00;99.90
7206;DHT22;3644;53.480;10.004;2022-12-17T07:39:48;-3.00;99.90
7206;DHT22;3644;53.480;10.004;2022-12-17T07:42:32;-2.90;99.90
7206;DHT22;3644;53.480;10.004;2022-12-17T07:45:16;-2.90;99.90
7206;DHT22;3644;53.480;10.004;2022-12-17T07:48:00;-2.90;99.90
7206;DHT22;3644;53.480;10.004;2022-12-17T07:50:48;-3.00;99.90
7206;DHT22;3644;53.480;10.004;2022-12-17T07:53:39;-3.10;99.90
7206;DHT22;3644;53.480;10.004;2022-12-17T07:56:24;-3.00;99.90
7206;DHT22;3644;53.480;10.004;2022-12-17T07:59:08;-3.00;99.90
7206;DHT22;3644;53.480;10.004;2022-12-17T08:01:52;-3.00;99.90
7206;DHT22;3644;53.480;10.004;2022-12-17T08:04:36;-3.00;99.90
7206;DHT22;3644;53.480;10.004;2022-12-17T08:07:20;-2.90;99.90
7206;DHT22;3644;53.480;10.004;2022-12-17T08:10:04;-2.90;99.90
7206;DHT22;3644;53.480;10.004;2022-12-17T08:12:59;-2.90;99.90
7206;DHT22;3644;53.480;10.004;2022-12-17T08:15:44;-2.90;99.90
7206;DHT22;3644;53.480;10.004;2022-12-17T08:18:29;-2.80;99.90
7206;DHT22;3644;53.480;10.004;2022-12-17T08:21:13;-2.80;99.90
7206;DHT22;3644;53.480;10.004;2022-12-17T08:23:57;-2.70;99.90
7206;DHT22;3644;53.480;10.004;2022-12-17T08:26:41;-2.70;99.90
7206;DHT22;3644;53.480;10.004;2022-12-17T08:29:25;-2.70;99.90
7206;DHT22;3644;53.480;10.004;2022-12-17T08:32:09;-2.70;99.90
7206;DHT22;3644;53.480;10.004;2022-12-17T08:34:53;-2.60;99.90
7206;DHT22;3644;53.480;10.004;2022-12-17T08:37:37;-2.60;99.90
7206;DHT22;3644;53.480;10.004;2022-12-17T08:40:21;-2.60;99.90
7206;DHT22;3644;53.480;10.004;2022-12-17T08:43:05;-2.60;99.90
7206;DHT22;3644;53.480;10.004;2022-12-17T08:45:51;-2.30;99.90
7206;DHT22;3644;53.480;10.004;2022-12-17T08:48:35;-2.30;99.90
7206;DHT22;3644;53.480;10.004;2022-12-17T08:51:20;-2.10;99.90
7206;DHT22;3644;53.480;10.004;2022-12-17T08:54:05;-2.10;99.90
7206;DHT22;3644;53.480;10.004;2022-12-17T08:56:49;-2.00;99.90
7206;DHT22;3644;53.480;10.004;2022-12-17T08:59:32;-2.00;99.90
7206;DHT22;3644;53.480;10.004;2022-12-17T09:02:16;-1.90;99.90
7206;DHT22;3644;53.480;10.004;2022-12-17T09:05:01;-1.70;99.90
7206;DHT22;3644;53.480;10.004;2022-12-17T09:07:44;-1.70;99.90
7206;DHT22;3644;53.480;10.004;2022-12-17T09:10:28;-1.50;99.90
7206;DHT22;3644;53.480;10.004;2022-12-17T09:13:13;-1.50;99.90
7206;DHT22;3644;53.480;10.004;2022-12-17T09:15:57;-1.40;99.90
7206;DHT22;3644;53.480;10.004;2022-12-17T09:18:41;-1.40;99.90
7206;DHT22;3644;53.480;10.004;2022-12-17T09:21:29;-1.40;99.90
7206;DHT22;3644;53.480;10.004;2022-12-17T09:24:14;-1.30;99.90
7206;DHT22;3644;53.480;10.004;2022-12-17T09:26:58;-1.20;99.90
7206;DHT22;3644;53.480;10.004;2022-12-17T09:29:42;-1.00;99.90
7206;DHT22;3644;53.480;10.004;2022-12-17T09:32:26;-1.00;99.90
7206;DHT22;3644;53.480;10.004;2022-12-17T09:35:10;-1.00;99.90
7206;DHT22;3644;53.480;10.004;2022-12-17T09:37:55;-1.00;99.90
7206;DHT22;3644;53.480;10.004;2022-12-17T09:40:44;-0.90;99.90
7206;DHT22;3644;53.480;10.004;2022-12-17T09:49:19;-0.90;99.90
7206;DHT22;3644;53.480;10.004;2022-12-17T09:52:24;-0.70;99.90
7206;DHT22;3644;53.480;10.004;2022-12-17T09:58:02;-0.80;99.90
7206;DHT22;3644;53.480;10.004;2022-12-17T10:00:55;-0.70;99.90
7206;DHT22;3644;53.480;10.004;2022-12-17T10:03:42;-0.80;99.90
7206;DHT22;3644;53.480;10.004;2022-12-17T10:06:29;-0.70;99.90
7206;DHT22;3644;53.480;10.004;2022-12-17T10:09:18;-0.80;99.90
7206;DHT22;3644;53.480;10.004;2022-12-17T10:12:11;-0.60;99.90
7206;DHT22;3644;53.480;10.004;2022-12-17T10:14:56;-0.40;99.90
7206;DHT22;3644;53.480;10.004;2022-12-17T10:17:40;-0.30;99.90
7206;DHT22;3644;53.480;10.004;2022-12-17T10:20:42;-0.30;99.90
7206;DHT22;3644;53.480;10.004;2022-12-17T10:23:30;-0.30;99.90
7206;DHT22;3644;53.480;10.004;2022-12-17T10:26:18;-0.20;99.90
7206;DHT22;3644;53.480;10.004;2022-12-17T10:29:05;-0.20;99.90
7206;DHT22;3644;53.480;10.004;2022-12-17T10:31:49;-0.20;99.90
7206;DHT22;3644;53.480;10.004;2022-12-17T10:34:35;-0.10;99.90
7206;DHT22;3644;53.480;10.004;2022-12-17T10:37:21;-0.10;99.90
7206;DHT22;3644;53.480;10.004;2022-12-17T10:40:18;0.00;99.90
7206;DHT22;3644;53.480;10.004;2022-12-17T10:43:19;0.10;99.90
7206;DHT22;3644;53.480;10.004;2022-12-17T10:46:04;0.00;99.90
7206;DHT22;3644;53.480;10.004;2022-12-17T10:48:48;0.10;99.90
7206;DHT22;3644;53.480;10.004;2022-12-17T10:51:34;0.10;99.90
7206;DHT22;3644;53.480;10.004;2022-12-17T10:54:27;0.20;99.90
7206;DHT22;3644;53.480;10.004;2022-12-17T10:57:33;0.40;99.90
7206;DHT22;3644;53.480;10.004;2022-12-17T11:03:18;0.40;99.90
7206;DHT22;3644;53.480;10.004;2022-12-17T11:06:29;0.50;99.90
7206;DHT22;3644;53.480;10.004;2022-12-17T11:09:37;0.60;99.90
7206;DHT22;3644;53.480;10.004;2022-12-17T11:12:32;0.60;99.90
7206;DHT22;3644;53.480;10.004;2022-12-17T11:15:19;0.60;99.90
7206;DHT22;3644;53.480;10.004;2022-12-17T11:18:05;0.70;99.90
7206;DHT22;3644;53.480;10.004;2022-12-17T11:21:07;0.70;99.90
7206;DHT22;3644;53.480;10.004;2022-12-17T11:23:54;0.70;99.90
7206;DHT22;3644;53.480;10.004;2022-12-17T11:26:40;0.70;99.90
7206;DHT22;3644;53.480;10.004;2022-12-17T11:29:27;0.80;99.90
7206;DHT22;3644;53.480;10.004;2022-12-17T11:32:34;0.90;99.90
7206;DHT22;3644;53.480;10.004;2022-12-17T11:35:29;0.90;99.90
7206;DHT22;3644;53.480;10.004;2022-12-17T11:38:23;1.00;99.90
7206;DHT22;3644;53.480;10.004;2022-12-17T11:41:14;1.10;99.90
7206;DHT22;3644;53.480;10.004;2022-12-17T11:44:29;1.10;99.90
7206;DHT22;3644;53.480;10.004;2022-12-17T11:47:33;1.20;99.90
7206;DHT22;3644;53.480;10.004;2022-12-17T11:56:40;1.40;99.90
7206;DHT22;3644;53.480;10.004;2022-12-17T11:59:26;1.50;99.90
7206;DHT22;3644;53.480;10.004;2022-12-17T12:08:26;1.60;99.90
7206;DHT22;3644;53.480;10.004;2022-12-17T12:11:19;1.70;99.90
7206;DHT22;3644;53.480;10.004;2022-12-17T12:14:55;1.70;99.90
7206;DHT22;3644;53.480;10.004;2022-12-17T12:23:17;1.90;99.90
7206;DHT22;3644;53.480;10.004;2022-12-17T12:26:14;1.90;99.90
7206;DHT22;3644;53.480;10.004;2022-12-17T12:32:13;2.00;99.90
7206;DHT22;3644;53.480;10.004;2022-12-17T12:35:01;2.00;99.90
7206;DHT22;3644;53.480;10.004;2022-12-17T12:37:47;1.90;99.90
7206;DHT22;3644;53.480;10.004;2022-12-17T12:40:45;2.00;99.90
7206;DHT22;3644;53.480;10.004;2022-12-17T12:43:36;2.10;99.90
7206;DHT22;3644;53.480;10.004;2022-12-17T12:46:46;2.10;99.90
7206;DHT22;3644;53.480;10.004;2022-12-17T12:49:40;2.10;99.90
7206;DHT22;3644;53.480;10.004;2022-12-17T12:52:27;2.20;99.90
7206;DHT22;3644;53.480;10.004;2022-12-17T12:55:12;2.20;99.90
7206;DHT22;3644;53.480;10.004;2022-12-17T12:58:24;2.20;99.90
7206;DHT22;3644;53.480;10.004;2022-12-17T13:01:08;2.30;99.90
7206;DHT22;3644;53.480;10.004;2022-12-17T13:03:54;2.30;99.90
7206;DHT22;3644;53.480;10.004;2022-12-17T13:06:46;2.30;99.90
7206;DHT22;3644;53.480;10.004;2022-12-17T13:14:32;2.40;99.90
7206;DHT22;3644;53.480;10.004;2022-12-17T13:17:03;2.40;99.90
7206;DHT22;3644;53.480;10.004;2022-12-17T13:24:43;2.50;99.90
7206;DHT22;3644;53.480;10.004;2022-12-17T13:27:28;2.50;99.90
7206;DHT22;3644;53.480;10.004;2022-12-17T13:29:54;2.50;99.90
7206;DHT22;3644;53.480;10.004;2022-12-17T13:32:27;2.50;99.90
7206;DHT22;3644;53.480;10.004;2022-12-17T13:37:50;2.60;99.90
7206;DHT22;3644;53.480;10.004;2022-12-17T13:40:40;2.50;99.90
7206;DHT22;3644;53.480;10.004;2022-12-17T13:43:18;2.50;99.90
7206;DHT22;3644;53.480;10.004;2022-12-17T13:45:45;2.50;99.90
7206;DHT22;3644;53.480;10.004;2022-12-17T13:48:22;2.50;99.90
7206;DHT22;3644;53.480;10.004;2022-12-17T13:51:02;2.60;99.90
7206;DHT22;3644;53.480;10.004;2022-12-17T13:53:30;2.60;99.90
7206;DHT22;3644;53.480;10.004;2022-12-17T13:55:59;2.60;99.90
7206;DHT22;3644;53.480;10.004;2022-12-17T13:58:28;2.50;99.90
7206;DHT22;3644;53.480;10.004;2022-12-17T14:01:08;2.60;99.90
7206;DHT22;3644;53.480;10.004;2022-12-17T14:03:34;2.60;99.90
7206;DHT22;3644;53.480;10.004;2022-12-17T14:06:01;2.70;99.90
7206;DHT22;3644;53.480;10.004;2022-12-17T14:08:30;2.60;99.90
7206;DHT22;3644;53.480;10.004;2022-12-17T14:10:57;2.60;99.90
7206;DHT22;3644;53.480;10.004;2022-12-17T14:13:44;2.60;99.90
7206;DHT22;3644;53.480;10.004;2022-12-17T14:16:15;2.60;99.90
7206;DHT22;3644;53.480;10.004;2022-12-17T14:18:45;2.60;99.90
7206;DHT22;3644;53.480;10.004;2022-12-17T14:21:12;2.60;99.90
7206;DHT22;3644;53.480;10.004;2022-12-17T14:23:38;2.50;99.90
7206;DHT22;3644;53.480;10.004;2022-12-17T14:26:05;2.50;99.90
7206;DHT22;3644;53.480;10.004;2022-12-17T14:28:47;2.60;99.90
7206;DHT22;3644;53.480;10.004;2022-12-17T14:33:39;2.50;99.90
7206;DHT22;3644;53.480;10.004;2022-12-17T14:36:17;2.60;99.90
7206;DHT22;3644;53.480;10.004;2022-12-17T14:38:54;2.50;99.90
7206;DHT22;3644;53.480;10.004;2022-12-17T14:41:21;2.50;99.90
7206;DHT22;3644;53.480;10.004;2022-12-17T14:44:05;2.40;99.90
7206;DHT22;3644;53.480;10.004;2022-12-17T14:46:33;2.20;99.90
7206;DHT22;3644;53.480;10.004;2022-12-17T14:49:03;2.30;99.90
7206;DHT22;3644;53.480;10.004;2022-12-17T14:51:36;2.20;99.90
7206;DHT22;3644;53.480;10.004;2022-12-17T14:56:51;2.20;99.90
7206;DHT22;3644;53.480;10.004;2022-12-17T14:59:37;2.10;99.90
7206;DHT22;3644;53.480;10.004;2022-12-17T15:04:43;1.90;99.90
7206;DHT22;3644;53.480;10.004;2022-12-17T15:07:13;1.90;99.90
7206;DHT22;3644;53.480;10.004;2022-12-17T15:09:41;1.90;99.90
7206;DHT22;3644;53.480;10.004;2022-12-17T15:12:07;1.90;99.90
7206;DHT22;3644;53.480;10.004;2022-12-17T15:14:33;2.00;99.90
7206;DHT22;3644;53.480;10.004;2022-12-17T15:16:58;2.00;99.90
7206;DHT22;3644;53.480;10.004;2022-12-17T15:19:25;2.00;99.90
7206;DHT22;3644;53.480;10.004;2022-12-17T15:21:51;1.90;99.90
7206;DHT22;3644;53.480;10.004;2022-12-17T15:24:20;1.90;99.90
7206;DHT22;3644;53.480;10.004;2022-12-17T15:26:46;1.90;99.90
7206;DHT22;3644;53.480;10.004;2022-12-17T15:29:12;1.80;99.90
7206;DHT22;3644;53.480;10.004;2022-12-17T15:31:37;1.80;99.90
7206;DHT22;3644;53.480;10.004;2022-12-17T15:34:04;1.80;99.90
7206;DHT22;3644;53.480;10.004;2022-12-17T15:36:30;1.70;99.90
7206;DHT22;3644;53.480;10.004;2022-12-17T15:38:57;1.60;99.90
7206;DHT22;3644;53.480;10.004;2022-12-17T15:41:22;1.60;99.90
7206;DHT22;3644;53.480;10.004;2022-12-17T15:44:06;1.60;99.90
7206;DHT22;3644;53.480;10.004;2022-12-17T15:46:32;1.50;99.90
7206;DHT22;3644;53.480;10.004;2022-12-17T15:48:57;1.50;99.90
7206;DHT22;3644;53.480;10.004;2022-12-17T15:51:23;1.50;99.90
7206;DHT22;3644;53.480;10.004;2022-12-17T15:53:49;1.50;99.90
7206;DHT22;3644;53.480;10.004;2022-12-17T15:56:24;1.50;99.90
7206;DHT22;3644;53.480;10.004;2022-12-17T15:58:50;1.40;99.90
7206;DHT22;3644;53.480;10.004;2022-12-17T16:01:16;1.40;99.90
7206;DHT22;3644;53.480;10.004;2022-12-17T16:03:42;1.40;99.90
7206;DHT22;3644;53.480;10.004;2022-12-17T16:06:07;1.30;99.90
7206;DHT22;3644;53.480;10.004;2022-12-17T16:08:33;1.30;99.90
7206;DHT22;3644;53.480;10.004;2022-12-17T16:10:58;1.30;99.90
7206;DHT22;3644;53.480;10.004;2022-12-17T16:13:24;1.30;99.90
7206;DHT22;3644;53.480;10.004;2022-12-17T16:15:58;1.30;99.90
7206;DHT22;3644;53.480;10.004;2022-12-17T16:18:25;1.20;99.90
7206;DHT22;3644;53.480;10.004;2022-12-17T16:20:50;1.20;99.90
7206;DHT22;3644;53.480;10.004;2022-12-17T16:23:16;1.20;99.90
7206;DHT22;3644;53.480;10.004;2022-12-17T16:25:42;1.10;99.90
7206;DHT22;3644;53.480;10.004;2022-12-17T16:28:07;1.00;99.90
7206;DHT22;3644;53.480;10.004;2022-12-17T16:30:33;0.90;99.90
7206;DHT22;3644;53.480;10.004;2022-12-17T16:32:59;1.10;99.90
7206;DHT22;3644;53.480;10.004;2022-12-17T16:35:25;1.00;99.90
7206;DHT22;3644;53.480;10.004;2022-12-17T16:37:52;0.80;99.90
7206;DHT22;3644;53.480;10.004;2022-12-17T16:40:18;0.80;99.90
7206;DHT22;3644;53.480;10.004;2022-12-17T16:42:43;0.60;99.90
7206;DHT22;3644;53.480;10.004;2022-12-17T16:45:09;0.70;99.90
7206;DHT22;3644;53.480;10.004;2022-12-17T16:47:35;0.70;99.90
7206;DHT22;3644;53.480;10.004;2022-12-17T16:50:00;0.70;99.90
7206;DHT22;3644;53.480;10.004;2022-12-17T16:52:26;0.60;99.90
7206;DHT22;3644;53.480;10.004;2022-12-17T16:54:51;0.60;99.90
7206;DHT22;3644;53.480;10.004;2022-12-17T16:57:17;0.60;99.90
7206;DHT22;3644;53.480;10.004;2022-12-17T16:59:42;0.40;99.90
7206;DHT22;3644;53.480;10.004;2022-12-17T17:02:14;0.50;99.90
7206;DHT22;3644;53.480;10.004;2022-12-17T17:04:40;0.60;99.90
7206;DHT22;3644;53.480;10.004;2022-12-17T17:07:05;0.50;99.90
7206;DHT22;3644;53.480;10.004;2022-12-17T17:09:31;0.50;99.90
7206;DHT22;3644;53.480;10.004;2022-12-17T17:11:57;0.50;99.90
7206;DHT22;3644;53.480;10.004;2022-12-17T17:14:24;0.40;99.90
7206;DHT22;3644;53.480;10.004;2022-12-17T17:16:50;0.40;99.90
7206;DHT22;3644;53.480;10.004;2022-12-17T17:19:15;0.30;99.90
7206;DHT22;3644;53.480;10.004;2022-12-17T17:21:46;0.30;99.90
7206;DHT22;3644;53.480;10.004;2022-12-17T17:24:14;0.30;99.90
7206;DHT22;3644;53.480;10.004;2022-12-17T17:26:40;0.40;99.90
7206;DHT22;3644;53.480;10.004;2022-12-17T17:29:06;0.40;99.90
7206;DHT22;3644;53.480;10.004;2022-12-17T17:31:33;0.40;99.90
7206;DHT22;3644;53.480;10.004;2022-12-17T17:33:58;0.20;99.90
7206;DHT22;3644;53.480;10.004;2022-12-17T17:36:29;0.10;99.90
7206;DHT22;3644;53.480;10.004;2022-12-17T17:38:57;0.20;99.90
7206;DHT22;3644;53.480;10.004;2022-12-17T17:41:25;0.10;99.90
7206;DHT22;3644;53.480;10.004;2022-12-17T17:43:55;0.00;99.90
7206;DHT22;3644;53.480;10.004;2022-12-17T17:46:21;0.00;99.90
7206;DHT22;3644;53.480;10.004;2022-12-17T17:48:48;0.00;99.90
7206;DHT22;3644;53.480;10.004;2022-12-17T17:51:23;0.10;99.90
7206;DHT22;3644;53.480;10.004;2022-12-17T17:53:50;0.10;99.90
7206;DHT22;3644;53.480;10.004;2022-12-17T17:56:22;0.00;99.90
7206;DHT22;3644;53.480;10.004;2022-12-17T17:58:50;0.00;99.90
7206;DHT22;3644;53.480;10.004;2022-12-17T18:01:19;-0.10;99.90
7206;DHT22;3644;53.480;10.004;2022-12-17T18:03:45;-0.10;99.90
7206;DHT22;3644;53.480;10.004;2022-12-17T18:06:11;-0.20;99.90
7206;DHT22;3644;53.480;10.004;2022-12-17T18:08:41;-0.10;99.90
7206;DHT22;3644;53.480;10.004;2022-12-17T18:11:08;-0.30;99.90
7206;DHT22;3644;53.480;10.004;2022-12-17T18:13:37;-0.20;99.90
7206;DHT22;3644;53.480;10.004;2022-12-17T18:16:37;-0.30;99.90
7206;DHT22;3644;53.480;10.004;2022-12-17T18:19:13;-0.40;99.90
7206;DHT22;3644;53.480;10.004;2022-12-17T18:21:38;-0.30;99.90